sensor_id;sensor_type;location;lat;lon;timestamp;P1;durP1;ratioP1;P2;durP2;ratioP2
4676;SDS011;2352;48.180;11.478;2023-04-29T00:01:03;0.30;;;0.30;;
4676;SDS011;2352;48.180;11.478;2023-04-29T00:04:06;0.40;;;0.40;;
4676;SDS011;2352;48.180;11.478;2023-04-29T00:07:10;0.27;;;0.20;;
4676;SDS011;2352;48.180;11.478;2023-04-29T00:10:16;0.37;;;0.30;;
4676;SDS011;2352;48.180;11.478;2023-04-29T00:13:20;0.20;;;0.20;;
4676;SDS011;2352;48.180;11.478;2023-04-29T00:16:23;0.27;;;0.27;;
4676;SDS011;2352;48.180;11.478;2023-04-29T00:19:27;0.27;;;0.27;;
4676;SDS011;2352;48.180;11.478;2023-04-29T00:22:30;0.27;;;0.27;;
4676;SDS011;2352;48.180;11.478;2023-04-29T00:25:33;0.73;;;0.47;;
4676;SDS011;2352;48.180;11.478;2023-04-29T00:28:39;0.20;;;0.20;;
4676;SDS011;2352;48.180;11.478;2023-04-29T00:31:43;0.40;;;0.40;;
4676;SDS011;2352;48.180;11.478;2023-04-29T00:34:46;0.30;;;0.30;;
4676;SDS011;2352;48.180;11.478;2023-04-29T00:37:49;0.20;;;0.20;;
4676;SDS011;2352;48.180;11.478;2023-04-29T00:40:53;0.20;;;0.20;;
4676;SDS011;2352;48.180;11.478;2023-04-29T00:43:58;0.67;;;0.40;;
4676;SDS011;2352;48.180;11.478;2023-04-29T00:47:01;0.20;;;0.20;;
4676;SDS011;2352;48.180;11.478;2023-04-29T00:50:05;0.40;;;0.40;;
4676;SDS011;2352;48.180;11.478;2023-04-29T00:53:09;0.27;;;0.27;;
4676;SDS011;2352;48.180;11.478;2023-04-29T00:56:13;0.33;;;0.33;;
4676;SDS011;2352;48.180;11.478;2023-04-29T00:59:18;0.40;;;0.40;;
4676;SDS011;2352;48.180;11.478;2023-04-29T01:02:21;0.30;;;0.30;;
4676;SDS011;2352;48.180;11.478;2023-04-29T01:05:26;0.30;;;0.30;;
4676;SDS011;2352;48.180;11.478;2023-04-29T01:08:31;0.40;;;0.40;;
4676;SDS011;2352;48.180;11.478;2023-04-29T01:11:38;0.30;;;0.30;;
4676;SDS011;2352;48.180;11.478;2023-04-29T01:14:47;0.30;;;0.30;;
4676;SDS011;2352;48.180;11.478;2023-04-29T01:17:54;1.03;;;0.50;;
4676;SDS011;2352;48.180;11.478;2023-04-29T01:20:58;0.30;;;0.30;;
4676;SDS011;2352;48.180;11.478;2023-04-29T01:24:03;0.50;;;0.50;;
4676;SDS011;2352;48.180;11.478;2023-04-29T01:27:09;0.33;;;0.33;;
4676;SDS011;2352;48.180;11.478;2023-04-29T01:30:16;2.10;;;0.50;;
4676;SDS011;2352;48.180;11.478;2023-04-29T01:33:22;0.60;;;0.60;;
4676;SDS011;2352;48.180;11.478;2023-04-29T01:36:32;0.40;;;0.40;;
4676;SDS011;2352;48.180;11.478;2023-04-29T01:39:44;0.53;;;0.50;;
4676;SDS011;2352;48.180;11.478;2023-04-29T01:42:50;0.37;;;0.37;;
4676;SDS011;2352;48.180;11.478;2023-04-29T01:45:57;0.40;;;0.40;;
4676;SDS011;2352;48.180;11.478;2023-04-29T01:49:01;0.50;;;0.33;;
4676;SDS011;2352;48.180;11.478;2023-04-29T01:52:04;0.30;;;0.30;;
4676;SDS011;2352;48.180;11.478;2023-04-29T01:55:09;0.30;;;0.30;;
4676;SDS011;2352;48.180;11.478;2023-04-29T01:58:13;1.03;;;1.00;;
4676;SDS011;2352;48.180;11.478;2023-04-29T02:01:16;0.37;;;0.37;;
4676;SDS011;2352;48.180;11.478;2023-04-29T02:04:19;0.50;;;0.50;;
4676;SDS011;2352;48.180;11.478;2023-04-29T02:07:23;0.40;;;0.40;;
4676;SDS011;2352;48.180;11.478;2023-04-29T02:10:27;0.60;;;0.50;;
4676;SDS011;2352;48.180;11.478;2023-04-29T02:13:31;0.80;;;0.63;;
4676;SDS011;2352;48.180;11.478;2023-04-29T02:16:34;0.50;;;0.30;;
4676;SDS011;2352;48.180;11.478;2023-04-29T02:19:37;0.50;;;0.50;;
4676;SDS011;2352;48.180;11.478;2023-04-29T02:22:41;0.50;;;0.50;;
4676;SDS011;2352;48.180;11.478;2023-04-29T02:25:45;1.10;;;0.80;;
4676;SDS011;2352;48.180;11.478;2023-04-29T02:28:49;0.37;;;0.37;;
4676;SDS011;2352;48.180;11.478;2023-04-29T02:31:52;0.50;;;0.50;;
4676;SDS011;2352;48.180;11.478;2023-04-29T02:34:56;0.60;;;0.60;;
4676;SDS011;2352;48.180;11.478;2023-04-29T02:37:59;0.40;;;0.40;;
4676;SDS011;2352;48.180;11.478;2023-04-29T02:41:04;0.97;;;0.73;;
4676;SDS011;2352;48.180;11.478;2023-04-29T02:44:07;1.47;;;0.77;;
4676;SDS011;2352;48.180;11.478;2023-04-29T02:47:11;0.40;;;0.40;;
4676;SDS011;2352;48.180;11.478;2023-04-29T02:50:14;0.60;;;0.60;;
4676;SDS011;2352;48.180;11.478;2023-04-29T02:53:17;0.60;;;0.60;;
4676;SDS011;2352;48.180;11.478;2023-04-29T02:56:23;0.47;;;0.47;;
4676;SDS011;2352;48.180;11.478;2023-04-29T02:59:26;0.80;;;0.50;;
4676;SDS011;2352;48.180;11.478;2023-04-29T03:02:29;0.70;;;0.70;;
4676;SDS011;2352;48.180;11.478;2023-04-29T03:05:33;0.47;;;0.47;;
4676;SDS011;2352;48.180;11.478;2023-04-29T03:08:36;0.70;;;0.70;;
4676;SDS011;2352;48.180;11.478;2023-04-29T03:11:41;0.67;;;0.60;;
4676;SDS011;2352;48.180;11.478;2023-04-29T03:14:44;0.80;;;0.73;;
4676;SDS011;2352;48.180;11.478;2023-04-29T03:17:48;0.60;;;0.60;;
4676;SDS011;2352;48.180;11.478;2023-04-29T03:20:51;0.73;;;0.40;;
4676;SDS011;2352;48.180;11.478;2023-04-29T03:23:54;0.60;;;0.60;;
4676;SDS011;2352;48.180;11.478;2023-04-29T03:26:59;0.50;;;0.50;;
4676;SDS011;2352;48.180;11.478;2023-04-29T03:30:03;1.00;;;0.70;;
4676;SDS011;2352;48.180;11.478;2023-04-29T03:33:06;1.07;;;0.70;;
4676;SDS011;2352;48.180;11.478;2023-04-29T03:36:10;0.87;;;0.77;;
4676;SDS011;2352;48.180;11.478;2023-04-29T03:39:14;1.00;;;1.00;;
4676;SDS011;2352;48.180;11.478;2023-04-29T03:42:18;0.90;;;0.80;;
4676;SDS011;2352;48.180;11.478;2023-04-29T03:45:22;0.80;;;0.80;;
4676;SDS011;2352;48.180;11.478;2023-04-29T03:48:25;0.90;;;0.90;;
4676;SDS011;2352;48.180;11.478;2023-04-29T03:51:28;1.10;;;1.00;;
4676;SDS011;2352;48.180;11.478;2023-04-29T03:54:32;0.70;;;0.70;;
4676;SDS011;2352;48.180;11.478;2023-04-29T03:57:36;0.83;;;0.83;;
4676;SDS011;2352;48.180;11.478;2023-04-29T04:00:42;1.10;;;1.00;;
4676;SDS011;2352;48.180;11.478;2023-04-29T04:03:46;1.30;;;1.07;;
4676;SDS011;2352;48.180;11.478;2023-04-29T04:06:49;4.17;;;0.93;;
4676;SDS011;2352;48.180;11.478;2023-04-29T04:09:52;0.90;;;0.90;;
4676;SDS011;2352;48.180;11.478;2023-04-29T04:12:57;1.13;;;1.13;;
4676;SDS011;2352;48.180;11.478;2023-04-29T04:16:01;1.03;;;1.03;;
4676;SDS011;2352;48.180;11.478;2023-04-29T04:19:04;1.30;;;1.20;;
4676;SDS011;2352;48.180;11.478;2023-04-29T04:22:07;1.07;;;1.07;;
4676;SDS011;2352;48.180;11.478;2023-04-29T04:25:13;1.40;;;1.30;;
4676;SDS011;2352;48.180;11.478;2023-04-29T04:28:18;1.07;;;1.07;;
4676;SDS011;2352;48.180;11.478;2023-04-29T04:31:21;2.57;;;0.77;;
4676;SDS011;2352;48.180;11.478;2023-04-29T04:34:25;1.20;;;1.10;;
4676;SDS011;2352;48.180;11.478;2023-04-29T04:37:28;0.83;;;0.83;;
4676;SDS011;2352;48.180;11.478;2023-04-29T04:40:32;1.47;;;1.37;;
4676;SDS011;2352;48.180;11.478;2023-04-29T04:43:36;1.17;;;1.07;;
4676;SDS011;2352;48.180;11.478;2023-04-29T04:46:41;2.53;;;1.20;;
4676;SDS011;2352;48.180;11.478;2023-04-29T04:49:44;0.97;;;0.97;;
4676;SDS011;2352;48.180;11.478;2023-04-29T04:52:49;1.37;;;1.20;;
4676;SDS011;2352;48.180;11.478;2023-04-29T04:55:53;1.50;;;1.40;;
4676;SDS011;2352;48.180;11.478;2023-04-29T04:58:57;1.20;;;1.13;;
4676;SDS011;2352;48.180;11.478;2023-04-29T05:02:01;1.10;;;1.10;;
4676;SDS011;2352;48.180;11.478;2023-04-29T05:05:04;1.53;;;1.43;;
4676;SDS011;2352;48.180;11.478;2023-04-29T05:08:08;1.47;;;1.40;;
4676;SDS011;2352;48.180;11.478;2023-04-29T05:11:14;1.20;;;1.10;;
4676;SDS011;2352;48.180;11.478;2023-04-29T05:14:20;1.17;;;1.07;;
4676;SDS011;2352;48.180;11.478;2023-04-29T05:17:23;1.40;;;1.30;;
4676;SDS011;2352;48.180;11.478;2023-04-29T05:20:27;1.17;;;1.13;;
4676;SDS011;2352;48.180;11.478;2023-04-29T05:23:30;1.20;;;1.10;;
4676;SDS011;2352;48.180;11.478;2023-04-29T05:26:33;1.43;;;1.33;;
4676;SDS011;2352;48.180;11.478;2023-04-29T05:29:38;1.17;;;1.07;;
4676;SDS011;2352;48.180;11.478;2023-04-29T05:32:41;1.57;;;1.40;;
4676;SDS011;2352;48.180;11.478;2023-04-29T05:35:46;1.83;;;1.47;;
4676;SDS011;2352;48.180;11.478;2023-04-29T05:38:49;2.17;;;2.00;;
4676;SDS011;2352;48.180;11.478;2023-04-29T05:41:52;2.47;;;2.30;;
4676;SDS011;2352;48.180;11.478;2023-04-29T05:44:57;1.67;;;1.57;;
4676;SDS011;2352;48.180;11.478;2023-04-29T05:48:00;1.60;;;1.50;;
4676;SDS011;2352;48.180;11.478;2023-04-29T05:51:04;1.97;;;1.87;;
4676;SDS011;2352;48.180;11.478;2023-04-29T05:54:07;1.50;;;1.40;;
4676;SDS011;2352;48.180;11.478;2023-04-29T05:57:10;1.53;;;1.43;;
4676;SDS011;2352;48.180;11.478;2023-04-29T06:00:15;1.83;;;1.73;;
4676;SDS011;2352;48.180;11.478;2023-04-29T06:03:19;2.27;;;2.17;;
4676;SDS011;2352;48.180;11.478;2023-04-29T06:06:23;2.53;;;2.33;;
4676;SDS011;2352;48.180;11.478;2023-04-29T06:09:27;2.83;;;2.63;;
4676;SDS011;2352;48.180;11.478;2023-04-29T06:12:30;3.47;;;3.27;;
4676;SDS011;2352;48.180;11.478;2023-04-29T06:15:35;4.30;;;4.00;;
4676;SDS011;2352;48.180;11.478;2023-04-29T06:18:38;4.07;;;3.83;;
4676;SDS011;2352;48.180;11.478;2023-04-29T06:21:41;3.43;;;3.23;;
4676;SDS011;2352;48.180;11.478;2023-04-29T06:24:45;5.57;;;5.17;;
4676;SDS011;2352;48.180;11.478;2023-04-29T06:27:49;4.63;;;4.33;;
4676;SDS011;2352;48.180;11.478;2023-04-29T06:30:54;4.70;;;4.40;;
4676;SDS011;2352;48.180;11.478;2023-04-29T06:33:57;5.23;;;4.93;;
4676;SDS011;2352;48.180;11.478;2023-04-29T06:37:01;4.83;;;4.53;;
4676;SDS011;2352;48.180;11.478;2023-04-29T06:40:05;5.20;;;4.87;;
4676;SDS011;2352;48.180;11.478;2023-04-29T06:43:08;5.80;;;5.40;;
4676;SDS011;2352;48.180;11.478;2023-04-29T06:46:13;4.67;;;4.37;;
4676;SDS011;2352;48.180;11.478;2023-04-29T06:49:17;5.17;;;4.77;;
4676;SDS011;2352;48.180;11.478;2023-04-29T06:52:20;4.90;;;4.60;;
4676;SDS011;2352;48.180;11.478;2023-04-29T06:55:23;5.27;;;4.97;;
4676;SDS011;2352;48.180;11.478;2023-04-29T06:58:26;5.00;;;4.70;;
4676;SDS011;2352;48.180;11.478;2023-04-29T07:01:31;4.70;;;4.33;;
4676;SDS011;2352;48.180;11.478;2023-04-29T07:04:35;4.10;;;3.90;;
4676;SDS011;2352;48.180;11.478;2023-04-29T07:07:38;4.80;;;4.50;;
4676;SDS011;2352;48.180;11.478;2023-04-29T07:10:42;5.00;;;4.60;;
4676;SDS011;2352;48.180;11.478;2023-04-29T07:13:45;5.50;;;5.00;;
4676;SDS011;2352;48.180;11.478;2023-04-29T07:16:53;4.10;;;3.87;;
4676;SDS011;2352;48.180;11.478;2023-04-29T07:19:56;3.87;;;3.67;;
4676;SDS011;2352;48.180;11.478;2023-04-29T07:23:00;4.80;;;4.37;;
4676;SDS011;2352;48.180;11.478;2023-04-29T07:26:08;4.17;;;3.87;;
4676;SDS011;2352;48.180;11.478;2023-04-29T07:29:11;4.27;;;3.97;;
4676;SDS011;2352;48.180;11.478;2023-04-29T07:32:16;5.80;;;5.33;;
4676;SDS011;2352;48.180;11.478;2023-04-29T07:35:19;4.70;;;3.70;;
4676;SDS011;2352;48.180;11.478;2023-04-29T07:38:23;3.73;;;3.53;;
4676;SDS011;2352;48.180;11.478;2023-04-29T07:41:26;3.37;;;3.17;;
4676;SDS011;2352;48.180;11.478;2023-04-29T07:44:29;3.57;;;3.27;;
4676;SDS011;2352;48.180;11.478;2023-04-29T07:47:34;4.17;;;3.87;;
4676;SDS011;2352;48.180;11.478;2023-04-29T07:50:38;4.00;;;3.70;;
4676;SDS011;2352;48.180;11.478;2023-04-29T07:53:41;3.60;;;3.40;;
4676;SDS011;2352;48.180;11.478;2023-04-29T07:56:44;3.70;;;3.40;;
4676;SDS011;2352;48.180;11.478;2023-04-29T07:59:49;3.70;;;3.40;;
4676;SDS011;2352;48.180;11.478;2023-04-29T08:02:55;3.70;;;3.07;;
4676;SDS011;2352;48.180;11.478;2023-04-29T08:05:59;2.93;;;2.73;;
4676;SDS011;2352;48.180;11.478;2023-04-29T08:09:03;3.40;;;3.20;;
4676;SDS011;2352;48.180;11.478;2023-04-29T08:12:07;2.97;;;2.73;;
4676;SDS011;2352;48.180;11.478;2023-04-29T08:15:10;3.33;;;3.10;;
4676;SDS011;2352;48.180;11.478;2023-04-29T08:18:15;3.40;;;3.20;;
4676;SDS011;2352;48.180;11.478;2023-04-29T08:21:19;2.67;;;2.47;;
4676;SDS011;2352;48.180;11.478;2023-04-29T08:24:22;3.40;;;3.10;;
4676;SDS011;2352;48.180;11.478;2023-04-29T08:27:26;2.00;;;1.90;;
4676;SDS011;2352;48.180;11.478;2023-04-29T08:30:29;2.87;;;1.97;;
4676;SDS011;2352;48.180;11.478;2023-04-29T08:33:34;2.63;;;2.43;;
4676;SDS011;2352;48.180;11.478;2023-04-29T08:36:36;1.70;;;1.60;;
4676;SDS011;2352;48.180;11.478;2023-04-29T08:39:39;3.23;;;2.33;;
4676;SDS011;2352;48.180;11.478;2023-04-29T08:42:43;1.77;;;1.67;;
4676;SDS011;2352;48.180;11.478;2023-04-29T08:45:49;1.93;;;1.77;;
4676;SDS011;2352;48.180;11.478;2023-04-29T08:48:53;2.10;;;2.00;;
4676;SDS011;2352;48.180;11.478;2023-04-29T08:51:58;1.90;;;1.80;;
4676;SDS011;2352;48.180;11.478;2023-04-29T08:55:03;1.47;;;1.37;;
4676;SDS011;2352;48.180;11.478;2023-04-29T08:58:06;1.57;;;1.47;;
4676;SDS011;2352;48.180;11.478;2023-04-29T09:01:10;1.67;;;1.57;;
4676;SDS011;2352;48.180;11.478;2023-04-29T09:04:18;1.50;;;1.40;;
4676;SDS011;2352;48.180;11.478;2023-04-29T09:07:36;1.47;;;1.33;;
4676;SDS011;2352;48.180;11.478;2023-04-29T09:10:40;1.40;;;1.30;;
4676;SDS011;2352;48.180;11.478;2023-04-29T09:13:43;1.03;;;1.03;;
4676;SDS011;2352;48.180;11.478;2023-04-29T09:16:46;1.03;;;1.03;;
4676;SDS011;2352;48.180;11.478;2023-04-29T09:19:51;1.20;;;1.20;;
4676;SDS011;2352;48.180;11.478;2023-04-29T09:22:58;2.40;;;1.50;;
4676;SDS011;2352;48.180;11.478;2023-04-29T09:26:02;1.27;;;1.23;;
4676;SDS011;2352;48.180;11.478;2023-04-29T09:29:05;1.63;;;1.53;;
4676;SDS011;2352;48.180;11.478;2023-04-29T09:32:17;1.53;;;1.37;;
4676;SDS011;2352;48.180;11.478;2023-04-29T09:35:23;1.27;;;1.27;;
4676;SDS011;2352;48.180;11.478;2023-04-29T09:38:27;1.23;;;1.10;;
4676;SDS011;2352;48.180;11.478;2023-04-29T09:41:30;1.13;;;1.10;;
4676;SDS011;2352;48.180;11.478;2023-04-29T09:44:34;1.33;;;1.20;;
4676;SDS011;2352;48.180;11.478;2023-04-29T09:47:37;2.20;;;0.90;;
4676;SDS011;2352;48.180;11.478;2023-04-29T09:50:42;1.80;;;0.80;;
4676;SDS011;2352;48.180;11.478;2023-04-29T09:53:47;2.20;;;1.30;;
4676;SDS011;2352;48.180;11.478;2023-04-29T09:56:50;0.70;;;0.70;;
4676;SDS011;2352;48.180;11.478;2023-04-29T09:59:54;1.27;;;1.17;;
4676;SDS011;2352;48.180;11.478;2023-04-29T10:02:57;4.77;;;1.93;;
4676;SDS011;2352;48.180;11.478;2023-04-29T10:06:03;2.03;;;1.87;;
4676;SDS011;2352;48.180;11.478;2023-04-29T10:09:07;2.13;;;2.03;;
4676;SDS011;2352;48.180;11.478;2023-04-29T10:12:17;1.60;;;1.50;;
4676;SDS011;2352;48.180;11.478;2023-04-29T10:15:22;2.27;;;2.17;;
4676;SDS011;2352;48.180;11.478;2023-04-29T10:18:29;1.63;;;1.53;;
4676;SDS011;2352;48.180;11.478;2023-04-29T10:21:39;2.23;;;2.03;;
4676;SDS011;2352;48.180;11.478;2023-04-29T10:24:42;1.73;;;1.63;;
4676;SDS011;2352;48.180;11.478;2023-04-29T10:27:45;1.63;;;1.53;;
4676;SDS011;2352;48.180;11.478;2023-04-29T10:30:49;1.47;;;1.37;;
4676;SDS011;2352;48.180;11.478;2023-04-29T10:33:54;1.53;;;1.43;;
4676;SDS011;2352;48.180;11.478;2023-04-29T10:36:59;1.63;;;1.53;;
4676;SDS011;2352;48.180;11.478;2023-04-29T10:40:06;1.77;;;1.67;;
4676;SDS011;2352;48.180;11.478;2023-04-29T10:43:14;1.50;;;1.40;;
4676;SDS011;2352;48.180;11.478;2023-04-29T10:46:18;1.70;;;1.33;;
4676;SDS011;2352;48.180;11.478;2023-04-29T10:49:22;1.60;;;1.50;;
4676;SDS011;2352;48.180;11.478;2023-04-29T10:52:28;1.50;;;1.40;;
4676;SDS011;2352;48.180;11.478;2023-04-29T10:55:31;1.77;;;1.50;;
4676;SDS011;2352;48.180;11.478;2023-04-29T10:58:39;1.47;;;1.37;;
4676;SDS011;2352;48.180;11.478;2023-04-29T11:01:45;4.67;;;1.43;;
4676;SDS011;2352;48.180;11.478;2023-04-29T11:05:08;1.40;;;1.30;;
4676;SDS011;2352;48.180;11.478;2023-04-29T11:08:14;1.65;;;1.55;;
4676;SDS011;2352;48.180;11.478;2023-04-29T11:11:24;1.50;;;1.40;;
4676;SDS011;2352;48.180;11.478;2023-04-29T11:14:29;1.03;;;1.03;;
4676;SDS011;2352;48.180;11.478;2023-04-29T11:17:39;1.43;;;1.17;;
4676;SDS011;2352;48.180;11.478;2023-04-29T11:24:17;0.90;;;0.80;;
4676;SDS011;2352;48.180;11.478;2023-04-29T11:27:21;2.27;;;0.80;;
4676;SDS011;2352;48.180;11.478;2023-04-29T11:30:26;1.70;;;1.60;;
4676;SDS011;2352;48.180;11.478;2023-04-29T11:33:31;1.37;;;1.27;;
4676;SDS011;2352;48.180;11.478;2023-04-29T11:36:35;1.47;;;1.37;;
4676;SDS011;2352;48.180;11.478;2023-04-29T11:39:39;1.10;;;1.00;;
4676;SDS011;2352;48.180;11.478;2023-04-29T11:42:43;0.80;;;0.77;;
4676;SDS011;2352;48.180;11.478;2023-04-29T11:45:47;0.93;;;0.90;;
4676;SDS011;2352;48.180;11.478;2023-04-29T11:48:51;0.87;;;0.80;;
4676;SDS011;2352;48.180;11.478;2023-04-29T11:51:54;2.33;;;1.02;;
4676;SDS011;2352;48.180;11.478;2023-04-29T11:54:59;4.18;;;3.83;;
4676;SDS011;2352;48.180;11.478;2023-04-29T11:58:03;2.75;;;1.60;;
4676;SDS011;2352;48.180;11.478;2023-04-29T12:01:06;0.90;;;0.90;;
4676;SDS011;2352;48.180;11.478;2023-04-29T12:04:09;0.73;;;0.73;;
4676;SDS011;2352;48.180;11.478;2023-04-29T12:07:13;1.35;;;0.90;;
4676;SDS011;2352;48.180;11.478;2023-04-29T12:10:19;0.55;;;0.55;;
4676;SDS011;2352;48.180;11.478;2023-04-29T12:13:23;1.00;;;0.77;;
4676;SDS011;2352;48.180;11.478;2023-04-29T12:16:27;0.70;;;0.70;;
4676;SDS011;2352;48.180;11.478;2023-04-29T12:19:34;0.80;;;0.80;;
4676;SDS011;2352;48.180;11.478;2023-04-29T12:22:53;0.70;;;0.70;;
4676;SDS011;2352;48.180;11.478;2023-04-29T12:25:58;1.85;;;0.80;;
4676;SDS011;2352;48.180;11.478;2023-04-29T12:29:03;0.60;;;0.60;;
4676;SDS011;2352;48.180;11.478;2023-04-29T12:32:06;1.25;;;0.70;;
4676;SDS011;2352;48.180;11.478;2023-04-29T12:35:14;0.70;;;0.70;;
4676;SDS011;2352;48.180;11.478;2023-04-29T12:38:21;0.97;;;0.80;;
4676;SDS011;2352;48.180;11.478;2023-04-29T12:41:38;0.52;;;0.50;;
4676;SDS011;2352;48.180;11.478;2023-04-29T12:44:43;0.98;;;0.52;;
4676;SDS011;2352;48.180;11.478;2023-04-29T12:47:47;0.60;;;0.60;;
4676;SDS011;2352;48.180;11.478;2023-04-29T12:50:53;1.20;;;1.00;;
4676;SDS011;2352;48.180;11.478;2023-04-29T12:53:58;0.80;;;0.80;;
4676;SDS011;2352;48.180;11.478;2023-04-29T12:57:05;0.50;;;0.50;;
4676;SDS011;2352;48.180;11.478;2023-04-29T13:00:09;0.60;;;0.60;;
4676;SDS011;2352;48.180;11.478;2023-04-29T13:03:13;0.68;;;0.50;;
4676;SDS011;2352;48.180;11.478;2023-04-29T13:06:16;1.33;;;0.60;;
4676;SDS011;2352;48.180;11.478;2023-04-29T13:09:19;0.55;;;0.52;;
4676;SDS011;2352;48.180;11.478;2023-04-29T13:12:23;0.28;;;0.28;;
4676;SDS011;2352;48.180;11.478;2023-04-29T13:15:27;0.95;;;0.40;;
4676;SDS011;2352;48.180;11.478;2023-04-29T13:18:33;1.63;;;0.35;;
4676;SDS011;2352;48.180;11.478;2023-04-29T13:21:37;0.30;;;0.30;;
4676;SDS011;2352;48.180;11.478;2023-04-29T13:24:40;0.52;;;0.50;;
4676;SDS011;2352;48.180;11.478;2023-04-29T13:27:44;0.60;;;0.60;;
4676;SDS011;2352;48.180;11.478;2023-04-29T13:30:47;0.40;;;0.40;;
4676;SDS011;2352;48.180;11.478;2023-04-29T13:33:50;1.13;;;0.40;;
4676;SDS011;2352;48.180;11.478;2023-04-29T13:36:55;0.32;;;0.32;;
4676;SDS011;2352;48.180;11.478;2023-04-29T13:39:58;1.45;;;0.85;;
4676;SDS011;2352;48.180;11.478;2023-04-29T13:43:03;0.47;;;0.47;;
4676;SDS011;2352;48.180;11.478;2023-04-29T13:46:09;0.57;;;0.57;;
4676;SDS011;2352;48.180;11.478;2023-04-29T13:49:13;0.50;;;0.50;;
4676;SDS011;2352;48.180;11.478;2023-04-29T13:52:36;0.50;;;0.40;;
4676;SDS011;2352;48.180;11.478;2023-04-29T13:55:59;0.30;;;0.30;;
4676;SDS011;2352;48.180;11.478;2023-04-29T13:59:23;0.50;;;0.50;;
4676;SDS011;2352;48.180;11.478;2023-04-29T14:02:29;0.40;;;0.40;;
4676;SDS011;2352;48.180;11.478;2023-04-29T14:05:33;1.75;;;0.85;;
4676;SDS011;2352;48.180;11.478;2023-04-29T14:08:37;0.47;;;0.47;;
4676;SDS011;2352;48.180;11.478;2023-04-29T14:11:40;0.60;;;0.60;;
4676;SDS011;2352;48.180;11.478;2023-04-29T14:14:44;1.15;;;0.70;;
4676;SDS011;2352;48.180;11.478;2023-04-29T14:17:47;0.40;;;0.40;;
4676;SDS011;2352;48.180;11.478;2023-04-29T14:20:51;0.60;;;0.60;;
4676;SDS011;2352;48.180;11.478;2023-04-29T14:23:55;0.50;;;0.50;;
4676;SDS011;2352;48.180;11.478;2023-04-29T14:26:57;1.75;;;0.40;;
4676;SDS011;2352;48.180;11.478;2023-04-29T14:30:04;0.57;;;0.40;;
4676;SDS011;2352;48.180;11.478;2023-04-29T14:33:08;0.70;;;0.70;;
4676;SDS011;2352;48.180;11.478;2023-04-29T14:36:11;0.60;;;0.60;;
4676;SDS011;2352;48.180;11.478;2023-04-29T14:39:14;0.70;;;0.45;;
4676;SDS011;2352;48.180;11.478;2023-04-29T14:42:17;0.57;;;0.57;;
4676;SDS011;2352;48.180;11.478;2023-04-29T14:45:22;0.70;;;0.65;;
4676;SDS011;2352;48.180;11.478;2023-04-29T14:48:25;0.50;;;0.50;;
4676;SDS011;2352;48.180;11.478;2023-04-29T14:51:28;0.43;;;0.43;;
4676;SDS011;2352;48.180;11.478;2023-04-29T14:54:32;0.68;;;0.60;;
4676;SDS011;2352;48.180;11.478;2023-04-29T14:57:35;0.50;;;0.40;;
4676;SDS011;2352;48.180;11.478;2023-04-29T15:00:39;0.57;;;0.50;;
4676;SDS011;2352;48.180;11.478;2023-04-29T15:03:42;0.38;;;0.38;;
4676;SDS011;2352;48.180;11.478;2023-04-29T15:06:45;0.70;;;0.70;;
4676;SDS011;2352;48.180;11.478;2023-04-29T15:09:48;1.55;;;0.52;;
4676;SDS011;2352;48.180;11.478;2023-04-29T15:12:51;0.75;;;0.75;;
4676;SDS011;2352;48.180;11.478;2023-04-29T15:15:55;0.85;;;0.85;;
4676;SDS011;2352;48.180;11.478;2023-04-29T15:18:58;0.60;;;0.60;;
4676;SDS011;2352;48.180;11.478;2023-04-29T15:22:02;0.63;;;0.63;;
4676;SDS011;2352;48.180;11.478;2023-04-29T15:25:05;0.57;;;0.55;;
4676;SDS011;2352;48.180;11.478;2023-04-29T15:28:09;1.05;;;0.70;;
4676;SDS011;2352;48.180;11.478;2023-04-29T15:31:13;3.22;;;0.90;;
4676;SDS011;2352;48.180;11.478;2023-04-29T15:34:16;0.52;;;0.52;;
4676;SDS011;2352;48.180;11.478;2023-04-29T15:37:19;1.08;;;0.77;;
4676;SDS011;2352;48.180;11.478;2023-04-29T15:40:24;0.75;;;0.75;;
4676;SDS011;2352;48.180;11.478;2023-04-29T15:43:27;0.65;;;0.60;;
4676;SDS011;2352;48.180;11.478;2023-04-29T15:46:31;0.63;;;0.63;;
4676;SDS011;2352;48.180;11.478;2023-04-29T15:49:34;0.65;;;0.65;;
4676;SDS011;2352;48.180;11.478;2023-04-29T15:52:38;0.80;;;0.80;;
4676;SDS011;2352;48.180;11.478;2023-04-29T15:55:41;0.40;;;0.40;;
4676;SDS011;2352;48.180;11.478;2023-04-29T15:58:44;0.50;;;0.50;;
4676;SDS011;2352;48.180;11.478;2023-04-29T16:01:48;0.70;;;0.57;;
4676;SDS011;2352;48.180;11.478;2023-04-29T16:04:51;0.60;;;0.60;;
4676;SDS011;2352;48.180;11.478;2023-04-29T16:07:54;0.50;;;0.50;;
4676;SDS011;2352;48.180;11.478;2023-04-29T16:10:57;0.52;;;0.52;;
4676;SDS011;2352;48.180;11.478;2023-04-29T16:14:00;1.70;;;0.80;;
4676;SDS011;2352;48.180;11.478;2023-04-29T16:17:04;0.85;;;0.85;;
4676;SDS011;2352;48.180;11.478;2023-04-29T16:20:08;0.60;;;0.60;;
4676;SDS011;2352;48.180;11.478;2023-04-29T16:23:11;0.70;;;0.70;;
4676;SDS011;2352;48.180;11.478;2023-04-29T16:26:14;0.50;;;0.50;;
4676;SDS011;2352;48.180;11.478;2023-04-29T16:29:18;0.65;;;0.65;;
4676;SDS011;2352;48.180;11.478;2023-04-29T16:32:22;0.75;;;0.73;;
4676;SDS011;2352;48.180;11.478;2023-04-29T16:35:27;0.60;;;0.60;;
4676;SDS011;2352;48.180;11.478;2023-04-29T16:38:31;0.80;;;0.80;;
4676;SDS011;2352;48.180;11.478;2023-04-29T16:41:34;0.85;;;0.80;;
4676;SDS011;2352;48.180;11.478;2023-04-29T16:44:38;0.98;;;0.98;;
4676;SDS011;2352;48.180;11.478;2023-04-29T16:47:43;0.63;;;0.63;;
4676;SDS011;2352;48.180;11.478;2023-04-29T16:50:46;1.00;;;1.00;;
4676;SDS011;2352;48.180;11.478;2023-04-29T16:53:51;0.70;;;0.70;;
4676;SDS011;2352;48.180;11.478;2023-04-29T16:56:54;0.80;;;0.80;;
4676;SDS011;2352;48.180;11.478;2023-04-29T16:59:58;1.25;;;1.00;;
4676;SDS011;2352;48.180;11.478;2023-04-29T17:03:02;1.52;;;1.00;;
4676;SDS011;2352;48.180;11.478;2023-04-29T17:06:06;5.10;;;2.40;;
4676;SDS011;2352;48.180;11.478;2023-04-29T17:09:09;1.95;;;1.85;;
4676;SDS011;2352;48.180;11.478;2023-04-29T17:12:13;1.37;;;1.23;;
4676;SDS011;2352;48.180;11.478;2023-04-29T17:15:16;1.30;;;1.20;;
4676;SDS011;2352;48.180;11.478;2023-04-29T17:18:21;1.90;;;1.80;;
4676;SDS011;2352;48.180;11.478;2023-04-29T17:21:24;1.90;;;1.80;;
4676;SDS011;2352;48.180;11.478;2023-04-29T17:24:29;1.80;;;1.70;;
4676;SDS011;2352;48.180;11.478;2023-04-29T17:27:32;1.93;;;1.70;;
4676;SDS011;2352;48.180;11.478;2023-04-29T17:30:36;1.93;;;1.83;;
4676;SDS011;2352;48.180;11.478;2023-04-29T17:33:41;2.30;;;2.10;;
4676;SDS011;2352;48.180;11.478;2023-04-29T17:36:55;1.90;;;1.80;;
4676;SDS011;2352;48.180;11.478;2023-04-29T17:39:58;2.43;;;2.23;;
4676;SDS011;2352;48.180;11.478;2023-04-29T17:43:01;2.20;;;2.10;;
4676;SDS011;2352;48.180;11.478;2023-04-29T17:46:04;1.80;;;1.70;;
4676;SDS011;2352;48.180;11.478;2023-04-29T17:49:09;1.70;;;1.60;;
4676;SDS011;2352;48.180;11.478;2023-04-29T17:52:12;2.53;;;2.33;;
4676;SDS011;2352;48.180;11.478;2023-04-29T17:55:17;2.77;;;2.57;;
4676;SDS011;2352;48.180;11.478;2023-04-29T17:58:21;3.00;;;2.80;;
4676;SDS011;2352;48.180;11.478;2023-04-29T18:01:24;2.93;;;2.67;;
4676;SDS011;2352;48.180;11.478;2023-04-29T18:04:28;2.87;;;2.67;;
4676;SDS011;2352;48.180;11.478;2023-04-29T18:07:32;2.30;;;2.20;;
4676;SDS011;2352;48.180;11.478;2023-04-29T18:10:35;2.27;;;2.17;;
4676;SDS011;2352;48.180;11.478;2023-04-29T18:13:39;2.70;;;2.50;;
4676;SDS011;2352;48.180;11.478;2023-04-29T18:16:43;3.27;;;3.07;;
4676;SDS011;2352;48.180;11.478;2023-04-29T18:19:48;3.77;;;3.33;;
4676;SDS011;2352;48.180;11.478;2023-04-29T18:22:51;3.83;;;3.53;;
4676;SDS011;2352;48.180;11.478;2023-04-29T18:25:55;3.73;;;3.43;;
4676;SDS011;2352;48.180;11.478;2023-04-29T18:28:58;2.60;;;2.40;;
4676;SDS011;2352;48.180;11.478;2023-04-29T18:32:02;3.20;;;3.00;;
4676;SDS011;2352;48.180;11.478;2023-04-29T18:35:09;2.87;;;2.67;;
4676;SDS011;2352;48.180;11.478;2023-04-29T18:38:13;2.60;;;2.47;;
4676;SDS011;2352;48.180;11.478;2023-04-29T18:41:17;3.10;;;2.80;;
4676;SDS011;2352;48.180;11.478;2023-04-29T18:44:21;4.13;;;3.03;;
4676;SDS011;2352;48.180;11.478;2023-04-29T18:47:26;3.13;;;2.93;;
4676;SDS011;2352;48.180;11.478;2023-04-29T18:50:31;3.47;;;3.27;;